Time;durP1;ratioP1;P1;durP2;ratioP2;P2;SDS_P1;SDS_P2;PMS_P1;PMS_P2;Temp;Humidity;BMP_temperature;BMP_pressure;BME280_temperature;BME280_humidity;BME280_pressure;Samples;Min_cycle;Max_cycle;Signal;HPM_P1;HPM_P2
2024/01/27 07:44:56;;;;;;;9.40;3.20;;;;;;;2.80;88.81;100457.44;105629;1303;546169;-83
2024/01/27 07:47:45;;;;;;;9.30;4.00;;;;;;;2.76;88.80;100463.09;106722;1290;22651;-86
2024/01/27 07:50:12;;;;;;;10.20;4.00;;;;;;;2.72;88.89;100461.96;109693;1290;22294;-90
2024/01/27 07:52:40;;;;;;;9.30;3.40;;;;;;;2.76;89.28;100465.33;109621;1289;22229;-92
2024/01/27 07:55:13;;;;;;;12.10;3.70;;;;;;;2.79;89.42;100461.42;109960;1283;22175;-91
2024/01/27 07:57:43;;;;;;;8.80;3.30;;;;;;;2.81;89.47;100465.83;109833;1281;282563;-91
2024/01/27 08:02:35;;;;;;;11.00;4.20;;;;;;;2.89;89.16;100470.17;106934;1313;557481;-91
2024/01/27 08:05:06;;;;;;;8.60;3.80;;;;;;;2.86;89.27;100468.89;109346;1286;22548;-92
2024/01/27 08:07:33;;;;;;;7.60;3.10;;;;;;;2.86;89.27;100473.24;109034;1293;22539;-92
2024/01/27 08:10:01;;;;;;;7.70;3.40;;;;;;;2.88;89.31;100479.36;108273;1293;22792;-92
2024/01/27 08:12:30;;;;;;;6.60;3.20;;;;;;;2.92;89.33;100482.77;106131;1292;24926;-85
2024/01/27 08:14:59;;;;;;;8.90;4.10;;;;;;;2.94;89.06;100485.77;98356;1290;10264729;-86
2024/01/27 08:17:40;;;;;;;7.70;3.20;;;;;;;2.91;89.06;100486.39;106261;1297;22620;-86
2024/01/27 08:20:50;;;;;;;9.30;3.60;;;;;;;2.84;89.37;100485.38;105875;1297;22713;-86
2024/01/27 08:23:49;;;;;;;7.60;4.00;;;;;;;2.82;89.56;100487.95;105903;1297;23824;-86
2024/01/27 08:26:29;;;;;;;6.00;3.50;;;;;;;2.81;89.72;100489.81;105768;1294;22600;-86
2024/01/27 08:29:03;;;;;;;8.80;3.90;;;;;;;2.78;89.86;100485.73;109597;1288;22470;-85
2024/01/27 08:31:51;;;;;;;6.70;3.40;;;;;;;2.77;89.75;100486.08;109673;1284;23148;-85
2024/01/27 08:34:21;;;;;;;6.10;4.00;;;;;;;2.74;89.82;100487.56;109581;1283;22155;-87
2024/01/27 08:37:22;;;;;;;6.60;3.90;;;;;;;2.75;90.20;100491.91;109837;1285;22180;-91
2024/01/27 08:40:01;;;;;;;8.50;3.70;;;;;;;2.74;90.21;100496.79;109854;1285;22845;-91
2024/01/27 08:42:27;;;;;;;5.90;3.10;;;;;;;2.76;90.38;100497.33;109854;1284;23112;-90
2024/01/27 08:44:54;;;;;;;7.00;3.30;;;;;;;2.80;90.33;100498.14;109893;1285;22379;-90
2024/01/27 08:47:23;;;;;;;9.90;3.50;;;;;;;2.82;90.32;100495.25;109821;1280;22372;-88
2024/01/27 08:49:51;;;;;;;7.80;3.70;;;;;;;2.83;90.48;100501.18;109828;1280;22596;-86
2024/01/27 08:52:19;;;;;;;6.10;3.30;;;;;;;2.85;90.42;100509.21;109819;1283;22376;-88
2024/01/27 08:54:45;;;;;;;6.20;2.80;;;;;;;2.87;90.55;100511.72;109598;1284;22203;-88
2024/01/27 08:57:15;;;;;;;6.10;3.10;;;;;;;2.90;90.45;100514.91;109407;1292;22173;-89
2024/01/27 08:59:41;;;;;;;7.20;2.90;;;;;;;2.88;90.58;100514.50;108753;1295;22208;-86
2024/01/27 09:02:08;;;;;;;4.20;2.40;;;;;;;2.87;90.40;100520.75;109178;1286;22421;-91
2024/01/27 09:04:36;;;;;;;5.30;2.70;;;;;;;2.88;90.67;100523.90;109730;1280;23192;-87
2024/01/27 09:07:03;;;;;;;8.80;3.30;;;;;;;2.91;90.57;100529.20;109657;1289;22189;-88
2024/01/27 09:09:30;;;;;;;6.80;2.90;;;;;;;2.91;90.71;100528.33;109537;1290;22334;-92
2024/01/27 09:11:58;;;;;;;6.70;2.50;;;;;;;2.88;90.69;100539.39;108737;1295;22190;-92
2024/01/27 09:17:12;;;;;;;6.90;3.20;;;;;;;3.03;90.78;100543.05;107016;1305;544972;-92
2024/01/27 09:19:41;;;;;;;5.40;2.80;;;;;;;3.02;90.55;100545.30;109806;1282;22271;-92
2024/01/27 09:22:09;;;;;;;4.00;2.60;;;;;;;3.06;90.93;100548.36;109733;1290;22679;-92
2024/01/27 09:24:37;;;;;;;4.30;2.50;;;;;;;3.09;90.60;100550.36;109540;1290;22631;-91
2024/01/27 09:27:05;;;;;;;5.80;2.60;;;;;;;3.11;90.45;100550.90;109513;1276;23863;-92
2024/01/27 09:29:40;;;;;;;5.70;3.00;;;;;;;3.14;90.56;100561.08;108455;1280;1288235;-94
2024/01/27 09:32:09;;;;;;;7.20;2.70;;;;;;;3.12;90.32;100559.45;109828;1285;22152;-91
2024/01/27 09:34:37;;;;;;;5.00;2.20;;;;;;;3.12;90.52;100562.23;109721;1288;22176;-90
2024/01/27 09:37:05;;;;;;;3.30;2.20;;;;;;;3.15;90.50;100565.95;107586;1295;22779;-90
2024/01/27 09:39:37;;;;;;;6.00;2.60;;;;;;;3.21;90.61;100568.02;107272;1280;22665;-89
2024/01/27 09:42:08;;;;;;;4.20;2.30;;;;;;;3.22;90.42;100571.36;106356;1294;22795;-90
2024/01/27 09:44:42;;;;;;;4.90;2.70;;;;;;;3.21;90.35;100570.13;107903;1289;22820;-91
2024/01/27 09:47:43;;;;;;;4.30;2.30;;;;;;;3.28;90.41;100580.71;107909;1304;545078;-91
2024/01/27 09:50:12;;;;;;;4.60;2.30;;;;;;;3.29;90.21;100575.86;109781;1288;22583;-93
2024/01/27 09:52:41;;;;;;;3.70;2.00;;;;;;;3.27;90.08;100581.04;109678;1288;22374;-92
2024/01/27 09:55:10;;;;;;;5.30;2.50;;;;;;;3.30;90.26;100587.73;109922;1279;22732;-90
2024/01/27 09:58:01;;;;;;;4.70;2.40;;;;;;;3.37;90.16;100593.98;107752;1307;544911;-92
2024/01/27 10:01:43;;;;;;;4.40;2.20;;;;;;;3.36;89.82;100588.05;106883;1305;546071;-90
2024/01/27 10:04:13;;;;;;;3.90;2.50;;;;;;;3.34;89.83;100595.83;109842;1285;22502;-93
2024/01/27 10:06:41;;;;;;;3.70;1.90;;;;;;;3.34;89.94;100591.48;109046;1281;22552;-93
2024/01/27 10:09:09;;;;;;;2.70;1.80;;;;;;;3.36;89.84;100602.14;108469;1285;23908;-92
2024/01/27 10:11:42;;;;;;;4.50;2.10;;;;;;;3.32;89.77;100600.49;106623;1290;22569;-82
2024/01/27 10:14:09;;;;;;;3.50;2.00;;;;;;;3.32;89.98;100606.75;108673;1288;337887;-90
2024/01/27 10:16:44;;;;;;;3.60;2.50;;;;;;;3.34;90.13;100610.12;108866;1289;22560;-88
2024/01/27 10:19:17;;;;;;;4.10;1.80;;;;;;;3.34;90.07;100615.84;108725;1288;22634;-91
2024/01/27 10:21:46;;;;;;;4.00;2.10;;;;;;;3.31;89.96;100617.34;106504;1279;22547;-90
2024/01/27 10:24:14;;;;;;;2.70;2.20;;;;;;;3.31;90.04;100621.02;107492;1288;25291;-90
2024/01/27 10:26:42;;;;;;;4.40;2.20;;;;;;;3.31;90.11;100624.48;107433;1283;22548;-90
2024/01/27 10:29:12;;;;;;;4.10;2.20;;;;;;;3.33;90.17;100625.58;108048;1282;24241;-91
2024/01/27 10:31:39;;;;;;;3.60;2.20;;;;;;;3.32;89.90;100624.86;110121;1282;22606;-91
2024/01/27 10:34:14;;;;;;;3.20;2.00;;;;;;;3.34;90.06;100631.34;110025;1283;22981;-91
2024/01/27 10:36:44;;;;;;;3.90;2.40;;;;;;;3.42;90.04;100630.84;110023;1280;22214;-91
2024/01/27 10:39:20;;;;;;;2.60;2.00;;;;;;;3.42;89.76;100635.36;110076;1280;22264;-90
2024/01/27 10:41:50;;;;;;;3.60;2.20;;;;;;;3.41;89.78;100643.00;110068;1280;22345;-89
2024/01/27 10:44:18;;;;;;;3.10;1.90;;;;;;;3.40;89.86;100636.53;110178;1280;22085;-90
2024/01/27 10:46:51;;;;;;;2.60;2.00;;;;;;;3.43;89.64;100643.92;110199;1280;22093;-89
2024/01/27 10:49:23;;;;;;;4.20;2.30;;;;;;;3.43;89.51;100650.20;110098;1280;23085;-90
2024/01/27 10:51:57;;;;;;;2.90;1.80;;;;;;;3.46;89.59;100650.97;110209;1280;22115;-88
2024/01/27 10:54:27;;;;;;;2.90;1.90;;;;;;;3.46;89.49;100655.14;110116;1280;22152;-88
2024/01/27 10:56:57;;;;;;;2.60;1.90;;;;;;;3.44;89.23;100660.50;110220;1280;22088;-89
2024/01/27 11:00:15;;;;;;;2.70;1.90;;;;;;;3.41;89.02;100664.74;109915;1280;22458;-88
2024/01/27 11:02:44;;;;;;;2.70;1.70;;;;;;;3.30;89.19;100671.27;109929;1282;22154;-84
2024/01/27 11:05:15;;;;;;;2.10;1.70;;;;;;;3.27;89.68;100677.98;109756;1281;22191;-89
2024/01/27 11:07:42;;;;;;;2.80;2.00;;;;;;;3.24;89.62;100680.20;109672;1286;22155;-84
2024/01/27 11:10:11;;;;;;;3.40;2.10;;;;;;;3.29;90.05;100687.45;109782;1279;23087;-89
2024/01/27 11:12:40;;;;;;;3.10;2.20;;;;;;;3.29;89.47;100683.45;109769;1287;22484;-90
2024/01/27 11:15:08;;;;;;;3.10;2.10;;;;;;;3.24;89.32;100694.13;109794;1284;22190;-90
2024/01/27 11:17:45;;;;;;;2.90;1.90;;;;;;;3.19;89.52;100695.23;109764;1287;22402;-90
2024/01/27 11:20:16;;;;;;;3.00;2.10;;;;;;;3.21;89.48;100698.57;109808;1286;22265;-90
2024/01/27 11:22:46;;;;;;;2.60;2.10;;;;;;;3.18;89.24;100704.40;109567;1292;22259;-88
2024/01/27 11:25:16;;;;;;;4.40;2.40;;;;;;;3.14;89.16;100712.30;109756;1287;22170;-88
2024/01/27 11:27:46;;;;;;;2.90;2.20;;;;;;;3.14;89.38;100714.91;109641;1287;22948;-89
2024/01/27 11:34:12;;;;;;;3.60;2.20;;;;;;;3.23;88.86;100726.98;105831;1305;545028;-93
2024/01/27 11:36:51;;;;;;;;;;;;;;;;;;;;;
2024/01/27 11:39:37;;;;;;;3.80;2.70;;;;;;;3.21;88.92;100736.16;109158;1269;22497;-89
2024/01/27 11:42:13;;;;;;;3.10;2.20;;;;;;;3.23;88.86;100738.99;108366;1270;23967;-88
2024/01/27 11:44:42;;;;;;;3.70;2.40;;;;;;;3.23;88.55;100747.18;108716;1281;22505;-90
2024/01/27 11:47:17;;;;;;;3.50;3.10;;;;;;;3.19;88.05;100747.77;103729;1284;5282364;-89
2024/01/27 11:49:53;;;;;;;5.40;2.80;;;;;;;3.18;87.91;100756.98;107337;1286;22645;-86
2024/01/27 11:52:27;;;;;;;3.50;2.40;;;;;;;3.15;87.65;100764.73;107384;1290;22587;-88
2024/01/27 11:55:00;;;;;;;3.30;2.30;;;;;;;3.12;87.77;100767.94;107251;1290;22549;-86
2024/01/27 12:04:00;;;;;;;3.50;2.50;;;;;;;3.04;88.17;100785.66;104358;1311;545220;-88
2024/01/27 12:06:28;;;;;;;2.60;2.10;;;;;;;3.02;88.23;100792.02;107032;1288;24155;-88
2024/01/27 12:08:57;;;;;;;4.30;3.00;;;;;;;3.05;88.30;100791.60;109707;1288;22212;-88
2024/01/27 12:11:25;;;;;;;4.70;3.10;;;;;;;3.04;87.92;100794.87;109617;1285;23055;-84
2024/01/27 12:13:53;;;;;;;3.80;2.90;;;;;;;3.01;88.18;100806.96;109893;1284;22386;-87
2024/01/27 12:16:24;;;;;;;5.30;3.50;;;;;;;3.00;88.22;100816.17;110262;1274;227789;-84
2024/01/27 12:18:56;;;;;;;3.90;2.90;;;;;;;3.02;88.40;100818.98;110075;1279;22401;-92
2024/01/27 12:34:42;;;;;;;2.90;2.50;;;;;;;3.53;86.90;100846.16;107219;1304;557900;-89
2024/01/27 12:37:15;;;;;;;3.40;2.90;;;;;;;3.57;86.89;100856.19;109505;1280;313452;-90
2024/01/27 12:39:44;;;;;;;4.20;3.40;;;;;;;3.56;87.00;100861.92;109924;1280;22567;-91
2024/01/27 12:42:14;;;;;;;2.80;2.50;;;;;;;3.48;86.70;100864.67;109241;1280;24167;-89
2024/01/27 12:44:45;;;;;;;4.70;3.40;;;;;;;3.44;87.01;100871.17;108865;1280;22572;-90
2024/01/27 12:47:15;;;;;;;3.60;3.30;;;;;;;3.43;87.00;100872.90;109347;1280;23115;-89
2024/01/27 12:49:44;;;;;;;4.20;3.20;;;;;;;3.42;87.09;100886.27;109459;1275;22488;-91
2024/01/27 12:52:13;;;;;;;3.70;3.30;;;;;;;3.37;86.88;100886.46;109348;1276;22543;-89
2024/01/27 12:54:40;;;;;;;4.10;2.70;;;;;;;3.35;87.04;100892.84;109772;1276;22241;-91
2024/01/27 12:57:10;;;;;;;2.50;2.30;;;;;;;3.32;86.98;100896.78;109883;1282;22537;-90
2024/01/27 12:59:49;;;;;;;3.90;2.90;;;;;;;3.31;87.15;100900.05;109772;1277;22175;-90
2024/01/27 13:02:17;;;;;;;3.10;2.80;;;;;;;3.34;87.26;100906.23;109987;1283;22172;-89
2024/01/27 13:07:26;;;;;;;3.10;2.70;;;;;;;3.37;86.96;100913.80;110124;1277;21984;-89
2024/01/27 13:09:55;;;;;;;3.50;2.40;;;;;;;3.37;86.87;100911.01;109772;1280;22801;-89
2024/01/27 13:12:24;;;;;;;3.40;2.60;;;;;;;3.37;86.63;100919.71;109138;1280;22497;-88
2024/01/27 13:14:56;;;;;;;2.50;2.30;;;;;;;3.36;86.69;100923.36;109678;1280;22328;-89
2024/01/27 13:17:32;;;;;;;2.60;2.40;;;;;;;3.36;86.51;100929.30;109202;1280;22132;-89
2024/01/27 13:20:00;;;;;;;3.20;2.60;;;;;;;3.34;86.39;100934.11;109210;1280;25171;-91
2024/01/27 13:22:31;;;;;;;3.10;2.90;;;;;;;3.34;86.22;100938.28;108394;1278;23769;-90
2024/01/27 13:25:04;;;;;;;3.50;2.40;;;;;;;3.39;86.74;100942.08;108166;1280;22536;-88
2024/01/27 13:27:35;;;;;;;2.40;2.20;;;;;;;3.44;86.23;100948.14;107159;1280;22537;-87
2024/01/27 13:30:04;;;;;;;3.00;2.70;;;;;;;3.48;86.52;100952.09;107413;1285;22564;-85
2024/01/27 13:41:55;;;;;;;3.10;2.40;;;;;;;3.43;85.56;100972.85;108309;1270;24194;-88
2024/01/27 13:44:26;;;;;;;3.40;3.10;;;;;;;3.40;85.84;100982.50;109423;1284;22650;-85
2024/01/27 13:47:00;;;;;;;2.60;2.40;;;;;;;3.42;85.69;100991.08;109723;1280;22575;-85
2024/01/27 13:50:46;;;;;;;2.90;2.50;;;;;;;3.36;85.21;100995.96;109761;1284;22253;-88
